sensor_id;sensor_type;location;lat;lon;timestamp;P1;durP1;ratioP1;P2;durP2;ratioP2
15502;SDS011;7853;52.186;5.948;2023-04-06T00:03:28;7.60;;;4.40;;
15502;SDS011;7853;52.186;5.948;2023-04-06T00:03:29;5.97;;;3.68;;
15502;SDS011;7853;52.186;5.948;2023-04-06T00:04:13;8.24;;;4.34;;
15502;SDS011;7853;52.186;5.948;2023-04-06T00:05:00;8.49;;;4.07;;
15502;SDS011;7853;52.186;5.948;2023-04-06T00:05:46;6.76;;;3.66;;
15502;SDS011;7853;52.186;5.948;2023-04-06T00:06:39;8.67;;;4.50;;
15502;SDS011;7853;52.186;5.948;2023-04-06T00:07:38;9.13;;;4.28;;
15502;SDS011;7853;52.186;5.948;2023-04-06T00:08:33;10.11;;;4.36;;
15502;SDS011;7853;52.186;5.948;2023-04-06T00:09:33;7.75;;;4.08;;
15502;SDS011;7853;52.186;5.948;2023-04-06T00:10:33;8.84;;;4.38;;
15502;SDS011;7853;52.186;5.948;2023-04-06T00:11:32;9.79;;;4.66;;
15502;SDS011;7853;52.186;5.948;2023-04-06T00:12:32;8.50;;;4.21;;
15502;SDS011;7853;52.186;5.948;2023-04-06T00:13:33;8.49;;;4.19;;
15502;SDS011;7853;52.186;5.948;2023-04-06T00:14:33;7.93;;;4.51;;
15502;SDS011;7853;52.186;5.948;2023-04-06T00:15:33;8.54;;;4.37;;
15502;SDS011;7853;52.186;5.948;2023-04-06T00:16:33;8.33;;;4.41;;
15502;SDS011;7853;52.186;5.948;2023-04-06T00:17:33;8.17;;;4.42;;
15502;SDS011;7853;52.186;5.948;2023-04-06T00:18:33;9.13;;;4.19;;
15502;SDS011;7853;52.186;5.948;2023-04-06T00:19:33;8.77;;;4.29;;
15502;SDS011;7853;52.186;5.948;2023-04-06T00:20:33;8.46;;;4.10;;
15502;SDS011;7853;52.186;5.948;2023-04-06T00:21:33;8.67;;;4.17;;
15502;SDS011;7853;52.186;5.948;2023-04-06T00:22:34;7.14;;;3.82;;
15502;SDS011;7853;52.186;5.948;2023-04-06T00:23:33;9.44;;;4.57;;
15502;SDS011;7853;52.186;5.948;2023-04-06T00:24:33;7.59;;;4.12;;
15502;SDS011;7853;52.186;5.948;2023-04-06T00:25:33;7.19;;;4.21;;
15502;SDS011;7853;52.186;5.948;2023-04-06T00:26:34;8.31;;;4.26;;
15502;SDS011;7853;52.186;5.948;2023-04-06T00:27:33;7.18;;;4.11;;
15502;SDS011;7853;52.186;5.948;2023-04-06T00:28:33;8.35;;;4.34;;
15502;SDS011;7853;52.186;5.948;2023-04-06T00:29:33;7.31;;;4.33;;
15502;SDS011;7853;52.186;5.948;2023-04-06T00:30:34;7.04;;;4.29;;
15502;SDS011;7853;52.186;5.948;2023-04-06T00:31:33;8.29;;;4.13;;
15502;SDS011;7853;52.186;5.948;2023-04-06T00:32:34;8.52;;;4.06;;
15502;SDS011;7853;52.186;5.948;2023-04-06T00:33:34;6.99;;;4.16;;
15502;SDS011;7853;52.186;5.948;2023-04-06T00:34:34;7.42;;;4.16;;
15502;SDS011;7853;52.186;5.948;2023-04-06T00:35:34;7.09;;;4.17;;
15502;SDS011;7853;52.186;5.948;2023-04-06T00:36:34;7.20;;;4.15;;
15502;SDS011;7853;52.186;5.948;2023-04-06T00:37:34;8.48;;;4.23;;
15502;SDS011;7853;52.186;5.948;2023-04-06T00:38:34;7.09;;;4.01;;
15502;SDS011;7853;52.186;5.948;2023-04-06T00:39:34;7.26;;;4.03;;
15502;SDS011;7853;52.186;5.948;2023-04-06T00:40:34;7.02;;;3.88;;
15502;SDS011;7853;52.186;5.948;2023-04-06T00:41:34;6.08;;;3.81;;
15502;SDS011;7853;52.186;5.948;2023-04-06T00:42:34;6.48;;;3.93;;
15502;SDS011;7853;52.186;5.948;2023-04-06T00:43:34;6.99;;;4.00;;
15502;SDS011;7853;52.186;5.948;2023-04-06T00:44:34;6.52;;;3.89;;
15502;SDS011;7853;52.186;5.948;2023-04-06T00:45:34;7.02;;;3.92;;
15502;SDS011;7853;52.186;5.948;2023-04-06T00:46:34;6.49;;;4.02;;
15502;SDS011;7853;52.186;5.948;2023-04-06T00:47:34;6.45;;;4.01;;
15502;SDS011;7853;52.186;5.948;2023-04-06T00:48:34;6.76;;;4.08;;
15502;SDS011;7853;52.186;5.948;2023-04-06T00:49:34;6.69;;;4.22;;
15502;SDS011;7853;52.186;5.948;2023-04-06T00:50:34;7.77;;;4.25;;
15502;SDS011;7853;52.186;5.948;2023-04-06T00:51:34;7.34;;;4.07;;
15502;SDS011;7853;52.186;5.948;2023-04-06T00:52:34;6.92;;;3.94;;
15502;SDS011;7853;52.186;5.948;2023-04-06T00:53:34;6.01;;;3.91;;
15502;SDS011;7853;52.186;5.948;2023-04-06T00:54:34;6.20;;;3.96;;
15502;SDS011;7853;52.186;5.948;2023-04-06T00:55:34;5.68;;;3.69;;
15502;SDS011;7853;52.186;5.948;2023-04-06T00:56:34;6.13;;;3.81;;
15502;SDS011;7853;52.186;5.948;2023-04-06T00:57:35;6.46;;;3.92;;
15502;SDS011;7853;52.186;5.948;2023-04-06T00:58:34;5.96;;;3.98;;
15502;SDS011;7853;52.186;5.948;2023-04-06T00:59:34;6.71;;;3.95;;
15502;SDS011;7853;52.186;5.948;2023-04-06T01:00:34;6.08;;;3.73;;
15502;SDS011;7853;52.186;5.948;2023-04-06T01:01:34;7.07;;;4.05;;
15502;SDS011;7853;52.186;5.948;2023-04-06T01:02:34;6.60;;;3.92;;
15502;SDS011;7853;52.186;5.948;2023-04-06T01:03:34;6.93;;;4.10;;
15502;SDS011;7853;52.186;5.948;2023-04-06T01:04:34;6.63;;;3.79;;
15502;SDS011;7853;52.186;5.948;2023-04-06T01:05:35;6.65;;;4.03;;
15502;SDS011;7853;52.186;5.948;2023-04-06T01:06:34;7.35;;;4.06;;
15502;SDS011;7853;52.186;5.948;2023-04-06T01:07:35;7.57;;;4.23;;
15502;SDS011;7853;52.186;5.948;2023-04-06T01:08:34;5.96;;;3.92;;
15502;SDS011;7853;52.186;5.948;2023-04-06T01:09:35;6.61;;;3.67;;
15502;SDS011;7853;52.186;5.948;2023-04-06T01:10:34;6.07;;;3.62;;
15502;SDS011;7853;52.186;5.948;2023-04-06T01:11:35;6.69;;;3.86;;
15502;SDS011;7853;52.186;5.948;2023-04-06T01:12:35;6.18;;;3.63;;
15502;SDS011;7853;52.186;5.948;2023-04-06T01:13:34;5.11;;;3.47;;
15502;SDS011;7853;52.186;5.948;2023-04-06T01:14:34;8.53;;;3.44;;
15502;SDS011;7853;52.186;5.948;2023-04-06T01:15:35;5.92;;;3.50;;
15502;SDS011;7853;52.186;5.948;2023-04-06T01:16:35;5.51;;;3.51;;
15502;SDS011;7853;52.186;5.948;2023-04-06T01:17:34;6.92;;;3.77;;
15502;SDS011;7853;52.186;5.948;2023-04-06T01:18:34;6.97;;;3.50;;
15502;SDS011;7853;52.186;5.948;2023-04-06T01:19:34;6.72;;;3.58;;
15502;SDS011;7853;52.186;5.948;2023-04-06T01:20:34;5.89;;;3.38;;
15502;SDS011;7853;52.186;5.948;2023-04-06T01:21:34;6.43;;;3.82;;
15502;SDS011;7853;52.186;5.948;2023-04-06T01:22:34;6.62;;;3.48;;
15502;SDS011;7853;52.186;5.948;2023-04-06T01:23:34;6.31;;;3.61;;
15502;SDS011;7853;52.186;5.948;2023-04-06T01:24:34;7.07;;;3.61;;
15502;SDS011;7853;52.186;5.948;2023-04-06T01:25:34;6.74;;;3.65;;
15502;SDS011;7853;52.186;5.948;2023-04-06T01:26:35;5.68;;;3.26;;
15502;SDS011;7853;52.186;5.948;2023-04-06T01:27:35;6.55;;;3.68;;
15502;SDS011;7853;52.186;5.948;2023-04-06T01:28:34;6.37;;;3.50;;
15502;SDS011;7853;52.186;5.948;2023-04-06T01:29:34;5.56;;;3.28;;
15502;SDS011;7853;52.186;5.948;2023-04-06T01:30:35;5.74;;;3.24;;
15502;SDS011;7853;52.186;5.948;2023-04-06T01:31:34;6.93;;;3.41;;
15502;SDS011;7853;52.186;5.948;2023-04-06T01:32:34;6.37;;;3.37;;
15502;SDS011;7853;52.186;5.948;2023-04-06T01:33:34;6.55;;;3.46;;
15502;SDS011;7853;52.186;5.948;2023-04-06T01:34:34;6.70;;;3.48;;
15502;SDS011;7853;52.186;5.948;2023-04-06T01:35:35;7.08;;;3.50;;
15502;SDS011;7853;52.186;5.948;2023-04-06T01:36:34;6.91;;;3.67;;
15502;SDS011;7853;52.186;5.948;2023-04-06T01:37:34;6.97;;;3.52;;
15502;SDS011;7853;52.186;5.948;2023-04-06T01:38:35;7.82;;;3.97;;
15502;SDS011;7853;52.186;5.948;2023-04-06T01:39:34;7.35;;;3.92;;
15502;SDS011;7853;52.186;5.948;2023-04-06T01:40:38;6.81;;;3.64;;
15502;SDS011;7853;52.186;5.948;2023-04-06T01:41:34;5.62;;;3.26;;
15502;SDS011;7853;52.186;5.948;2023-04-06T01:42:35;7.07;;;3.53;;
15502;SDS011;7853;52.186;5.948;2023-04-06T01:43:35;7.78;;;4.10;;
15502;SDS011;7853;52.186;5.948;2023-04-06T01:44:34;8.26;;;3.73;;
15502;SDS011;7853;52.186;5.948;2023-04-06T01:45:34;8.14;;;3.65;;
15502;SDS011;7853;52.186;5.948;2023-04-06T01:46:35;8.42;;;3.89;;
15502;SDS011;7853;52.186;5.948;2023-04-06T01:47:35;6.36;;;3.70;;
15502;SDS011;7853;52.186;5.948;2023-04-06T01:48:35;6.60;;;3.47;;
15502;SDS011;7853;52.186;5.948;2023-04-06T01:49:35;7.28;;;3.49;;
15502;SDS011;7853;52.186;5.948;2023-04-06T01:50:35;6.40;;;3.48;;
15502;SDS011;7853;52.186;5.948;2023-04-06T01:51:34;7.10;;;3.56;;
15502;SDS011;7853;52.186;5.948;2023-04-06T01:52:35;6.20;;;3.38;;
15502;SDS011;7853;52.186;5.948;2023-04-06T01:53:35;6.99;;;3.32;;
15502;SDS011;7853;52.186;5.948;2023-04-06T01:54:34;5.96;;;3.35;;
15502;SDS011;7853;52.186;5.948;2023-04-06T01:55:35;6.15;;;3.27;;
15502;SDS011;7853;52.186;5.948;2023-04-06T01:56:34;4.96;;;3.39;;
15502;SDS011;7853;52.186;5.948;2023-04-06T01:57:35;6.60;;;3.35;;
15502;SDS011;7853;52.186;5.948;2023-04-06T01:58:35;6.63;;;3.45;;
15502;SDS011;7853;52.186;5.948;2023-04-06T01:59:35;5.56;;;3.28;;
15502;SDS011;7853;52.186;5.948;2023-04-06T02:00:35;7.91;;;3.46;;
15502;SDS011;7853;52.186;5.948;2023-04-06T02:01:34;5.79;;;3.30;;
15502;SDS011;7853;52.186;5.948;2023-04-06T02:02:35;6.24;;;3.34;;
15502;SDS011;7853;52.186;5.948;2023-04-06T02:03:35;5.96;;;3.44;;
15502;SDS011;7853;52.186;5.948;2023-04-06T02:04:35;5.29;;;3.20;;
15502;SDS011;7853;52.186;5.948;2023-04-06T02:05:35;5.85;;;3.39;;
15502;SDS011;7853;52.186;5.948;2023-04-06T02:06:35;7.24;;;3.37;;
15502;SDS011;7853;52.186;5.948;2023-04-06T02:07:35;5.78;;;3.32;;
15502;SDS011;7853;52.186;5.948;2023-04-06T02:08:34;5.81;;;3.43;;
15502;SDS011;7853;52.186;5.948;2023-04-06T02:09:35;6.23;;;3.34;;
15502;SDS011;7853;52.186;5.948;2023-04-06T02:10:35;5.52;;;3.44;;
15502;SDS011;7853;52.186;5.948;2023-04-06T02:11:35;5.94;;;3.32;;
15502;SDS011;7853;52.186;5.948;2023-04-06T02:12:35;5.77;;;3.30;;
15502;SDS011;7853;52.186;5.948;2023-04-06T02:13:35;5.62;;;3.40;;
15502;SDS011;7853;52.186;5.948;2023-04-06T02:14:35;7.00;;;3.28;;
15502;SDS011;7853;52.186;5.948;2023-04-06T02:15:35;6.55;;;3.63;;
15502;SDS011;7853;52.186;5.948;2023-04-06T02:16:34;7.56;;;3.50;;
15502;SDS011;7853;52.186;5.948;2023-04-06T02:17:35;5.92;;;3.52;;
15502;SDS011;7853;52.186;5.948;2023-04-06T02:18:35;6.53;;;3.57;;
15502;SDS011;7853;52.186;5.948;2023-04-06T02:19:34;5.68;;;3.27;;
15502;SDS011;7853;52.186;5.948;2023-04-06T02:20:35;5.71;;;3.26;;
15502;SDS011;7853;52.186;5.948;2023-04-06T02:21:35;5.78;;;3.37;;
15502;SDS011;7853;52.186;5.948;2023-04-06T02:22:35;5.77;;;3.33;;
15502;SDS011;7853;52.186;5.948;2023-04-06T02:23:35;6.20;;;3.70;;
15502;SDS011;7853;52.186;5.948;2023-04-06T02:24:35;6.72;;;3.52;;
15502;SDS011;7853;52.186;5.948;2023-04-06T02:25:34;6.31;;;3.57;;
15502;SDS011;7853;52.186;5.948;2023-04-06T02:26:35;5.91;;;3.55;;
15502;SDS011;7853;52.186;5.948;2023-04-06T02:27:35;6.75;;;3.42;;
15502;SDS011;7853;52.186;5.948;2023-04-06T02:28:35;6.37;;;3.40;;
15502;SDS011;7853;52.186;5.948;2023-04-06T02:29:34;5.88;;;3.48;;
15502;SDS011;7853;52.186;5.948;2023-04-06T02:30:35;5.66;;;3.42;;
15502;SDS011;7853;52.186;5.948;2023-04-06T02:31:35;6.81;;;3.49;;
15502;SDS011;7853;52.186;5.948;2023-04-06T02:32:34;6.49;;;3.72;;
15502;SDS011;7853;52.186;5.948;2023-04-06T02:33:35;6.55;;;3.67;;
15502;SDS011;7853;52.186;5.948;2023-04-06T02:34:35;6.07;;;3.30;;
15502;SDS011;7853;52.186;5.948;2023-04-06T02:35:37;5.63;;;3.49;;
15502;SDS011;7853;52.186;5.948;2023-04-06T02:36:34;6.81;;;3.81;;
15502;SDS011;7853;52.186;5.948;2023-04-06T02:37:34;5.95;;;3.69;;
15502;SDS011;7853;52.186;5.948;2023-04-06T02:38:35;5.94;;;3.56;;
15502;SDS011;7853;52.186;5.948;2023-04-06T02:39:34;6.01;;;3.58;;
15502;SDS011;7853;52.186;5.948;2023-04-06T02:40:35;6.43;;;3.48;;
15502;SDS011;7853;52.186;5.948;2023-04-06T02:41:34;8.47;;;3.63;;
15502;SDS011;7853;52.186;5.948;2023-04-06T02:42:35;5.98;;;3.47;;
15502;SDS011;7853;52.186;5.948;2023-04-06T02:43:35;6.04;;;3.50;;
15502;SDS011;7853;52.186;5.948;2023-04-06T02:44:35;6.97;;;3.68;;
15502;SDS011;7853;52.186;5.948;2023-04-06T02:45:35;7.85;;;3.85;;
15502;SDS011;7853;52.186;5.948;2023-04-06T02:46:35;6.67;;;3.81;;
15502;SDS011;7853;52.186;5.948;2023-04-06T02:47:35;6.66;;;3.65;;
15502;SDS011;7853;52.186;5.948;2023-04-06T02:48:35;6.56;;;3.47;;
15502;SDS011;7853;52.186;5.948;2023-04-06T02:49:35;7.41;;;3.54;;
15502;SDS011;7853;52.186;5.948;2023-04-06T02:50:34;7.23;;;3.52;;
15502;SDS011;7853;52.186;5.948;2023-04-06T02:51:35;7.63;;;3.91;;
15502;SDS011;7853;52.186;5.948;2023-04-06T02:52:35;7.29;;;3.92;;
15502;SDS011;7853;52.186;5.948;2023-04-06T02:53:35;7.96;;;4.02;;
15502;SDS011;7853;52.186;5.948;2023-04-06T02:54:34;7.14;;;3.81;;
15502;SDS011;7853;52.186;5.948;2023-04-06T02:55:35;7.19;;;3.67;;
15502;SDS011;7853;52.186;5.948;2023-04-06T02:56:35;6.64;;;3.87;;
15502;SDS011;7853;52.186;5.948;2023-04-06T02:57:35;6.55;;;3.69;;
15502;SDS011;7853;52.186;5.948;2023-04-06T02:58:35;6.29;;;3.58;;
15502;SDS011;7853;52.186;5.948;2023-04-06T02:59:34;7.59;;;3.62;;
15502;SDS011;7853;52.186;5.948;2023-04-06T03:00:35;8.76;;;3.78;;
15502;SDS011;7853;52.186;5.948;2023-04-06T03:01:35;8.21;;;3.94;;
15502;SDS011;7853;52.186;5.948;2023-04-06T03:02:34;7.73;;;3.77;;
15502;SDS011;7853;52.186;5.948;2023-04-06T03:03:35;7.30;;;3.85;;
15502;SDS011;7853;52.186;5.948;2023-04-06T03:04:35;8.07;;;3.94;;
15502;SDS011;7853;52.186;5.948;2023-04-06T03:05:35;7.52;;;3.68;;
15502;SDS011;7853;52.186;5.948;2023-04-06T03:06:35;7.87;;;3.63;;
15502;SDS011;7853;52.186;5.948;2023-04-06T03:07:35;7.07;;;3.87;;
15502;SDS011;7853;52.186;5.948;2023-04-06T03:08:35;6.88;;;3.64;;
15502;SDS011;7853;52.186;5.948;2023-04-06T03:09:36;7.16;;;3.77;;
15502;SDS011;7853;52.186;5.948;2023-04-06T03:10:35;7.01;;;3.72;;
15502;SDS011;7853;52.186;5.948;2023-04-06T03:11:35;7.53;;;3.94;;
15502;SDS011;7853;52.186;5.948;2023-04-06T03:12:35;7.03;;;3.79;;
15502;SDS011;7853;52.186;5.948;2023-04-06T03:13:35;6.15;;;3.62;;
15502;SDS011;7853;52.186;5.948;2023-04-06T03:14:34;6.36;;;3.78;;
15502;SDS011;7853;52.186;5.948;2023-04-06T03:15:35;6.80;;;3.55;;
15502;SDS011;7853;52.186;5.948;2023-04-06T03:16:34;5.93;;;3.63;;
15502;SDS011;7853;52.186;5.948;2023-04-06T03:17:34;6.57;;;3.71;;
15502;SDS011;7853;52.186;5.948;2023-04-06T03:18:35;6.76;;;3.78;;
15502;SDS011;7853;52.186;5.948;2023-04-06T03:19:35;6.18;;;3.84;;
15502;SDS011;7853;52.186;5.948;2023-04-06T03:20:35;6.52;;;3.87;;
15502;SDS011;7853;52.186;5.948;2023-04-06T03:21:35;6.86;;;4.03;;
15502;SDS011;7853;52.186;5.948;2023-04-06T03:22:35;6.29;;;3.77;;
15502;SDS011;7853;52.186;5.948;2023-04-06T03:23:35;6.14;;;3.75;;
15502;SDS011;7853;52.186;5.948;2023-04-06T03:24:34;6.94;;;3.91;;
15502;SDS011;7853;52.186;5.948;2023-04-06T03:25:34;5.47;;;3.53;;
15502;SDS011;7853;52.186;5.948;2023-04-06T03:26:35;6.77;;;3.77;;
15502;SDS011;7853;52.186;5.948;2023-04-06T03:27:34;6.29;;;3.59;;
15502;SDS011;7853;52.186;5.948;2023-04-06T03:28:35;5.53;;;3.59;;
15502;SDS011;7853;52.186;5.948;2023-04-06T03:29:35;5.53;;;3.49;;
15502;SDS011;7853;52.186;5.948;2023-04-06T03:30:34;5.82;;;3.60;;
15502;SDS011;7853;52.186;5.948;2023-04-06T03:31:35;6.13;;;3.55;;
15502;SDS011;7853;52.186;5.948;2023-04-06T03:32:34;5.32;;;3.56;;
15502;SDS011;7853;52.186;5.948;2023-04-06T03:33:35;5.26;;;3.63;;
15502;SDS011;7853;52.186;5.948;2023-04-06T03:34:35;4.92;;;3.70;;
15502;SDS011;7853;52.186;5.948;2023-04-06T03:35:35;6.05;;;3.68;;
15502;SDS011;7853;52.186;5.948;2023-04-06T03:36:35;6.60;;;3.39;;
15502;SDS011;7853;52.186;5.948;2023-04-06T03:37:35;6.02;;;3.65;;
15502;SDS011;7853;52.186;5.948;2023-04-06T03:38:34;5.69;;;3.61;;
15502;SDS011;7853;52.186;5.948;2023-04-06T03:39:35;5.65;;;3.42;;
15502;SDS011;7853;52.186;5.948;2023-04-06T03:40:35;5.97;;;3.83;;
15502;SDS011;7853;52.186;5.948;2023-04-06T03:41:34;5.64;;;3.52;;
15502;SDS011;7853;52.186;5.948;2023-04-06T03:42:34;5.49;;;3.81;;
15502;SDS011;7853;52.186;5.948;2023-04-06T03:43:35;5.05;;;3.47;;
15502;SDS011;7853;52.186;5.948;2023-04-06T03:44:35;5.29;;;3.32;;
15502;SDS011;7853;52.186;5.948;2023-04-06T03:45:34;4.87;;;3.39;;
15502;SDS011;7853;52.186;5.948;2023-04-06T03:46:34;5.08;;;3.41;;
15502;SDS011;7853;52.186;5.948;2023-04-06T03:47:35;5.67;;;3.74;;
15502;SDS011;7853;52.186;5.948;2023-04-06T03:48:35;5.40;;;3.17;;
15502;SDS011;7853;52.186;5.948;2023-04-06T03:49:34;5.23;;;3.34;;
15502;SDS011;7853;52.186;5.948;2023-04-06T03:50:34;5.17;;;3.56;;
15502;SDS011;7853;52.186;5.948;2023-04-06T03:51:35;5.39;;;3.44;;
15502;SDS011;7853;52.186;5.948;2023-04-06T03:52:35;4.86;;;3.24;;
15502;SDS011;7853;52.186;5.948;2023-04-06T03:53:35;5.82;;;3.54;;
15502;SDS011;7853;52.186;5.948;2023-04-06T03:54:35;5.20;;;3.26;;
15502;SDS011;7853;52.186;5.948;2023-04-06T03:55:35;5.84;;;3.51;;
15502;SDS011;7853;52.186;5.948;2023-04-06T03:56:34;4.74;;;3.35;;
15502;SDS011;7853;52.186;5.948;2023-04-06T03:57:35;4.91;;;3.33;;
15502;SDS011;7853;52.186;5.948;2023-04-06T03:58:34;5.02;;;3.47;;
15502;SDS011;7853;52.186;5.948;2023-04-06T03:59:34;5.74;;;3.57;;
15502;SDS011;7853;52.186;5.948;2023-04-06T04:00:36;4.59;;;3.34;;
15502;SDS011;7853;52.186;5.948;2023-04-06T04:01:35;5.25;;;3.33;;
15502;SDS011;7853;52.186;5.948;2023-04-06T04:02:35;4.88;;;3.42;;
15502;SDS011;7853;52.186;5.948;2023-04-06T04:03:35;4.83;;;3.27;;
15502;SDS011;7853;52.186;5.948;2023-04-06T04:04:34;5.43;;;3.41;;
15502;SDS011;7853;52.186;5.948;2023-04-06T04:05:35;4.71;;;3.15;;
15502;SDS011;7853;52.186;5.948;2023-04-06T04:06:34;4.84;;;3.18;;
15502;SDS011;7853;52.186;5.948;2023-04-06T04:07:34;4.74;;;3.35;;
15502;SDS011;7853;52.186;5.948;2023-04-06T04:08:35;5.70;;;3.59;;
15502;SDS011;7853;52.186;5.948;2023-04-06T04:09:34;5.10;;;3.31;;
15502;SDS011;7853;52.186;5.948;2023-04-06T04:10:35;4.87;;;3.45;;
15502;SDS011;7853;52.186;5.948;2023-04-06T04:11:35;5.58;;;3.41;;
15502;SDS011;7853;52.186;5.948;2023-04-06T04:12:35;5.26;;;3.59;;
15502;SDS011;7853;52.186;5.948;2023-04-06T04:13:35;5.37;;;3.47;;
15502;SDS011;7853;52.186;5.948;2023-04-06T04:14:34;5.41;;;3.57;;
15502;SDS011;7853;52.186;5.948;2023-04-06T04:15:34;4.81;;;3.57;;
15502;SDS011;7853;52.186;5.948;2023-04-06T04:16:35;5.36;;;3.51;;
15502;SDS011;7853;52.186;5.948;2023-04-06T04:17:34;6.27;;;3.50;;
15502;SDS011;7853;52.186;5.948;2023-04-06T04:18:35;5.77;;;3.57;;
15502;SDS011;7853;52.186;5.948;2023-04-06T04:19:35;5.62;;;3.54;;
15502;SDS011;7853;52.186;5.948;2023-04-06T04:20:35;5.13;;;3.69;;
15502;SDS011;7853;52.186;5.948;2023-04-06T04:21:41;4.96;;;3.47;;
15502;SDS011;7853;52.186;5.948;2023-04-06T04:22:35;6.88;;;3.72;;
15502;SDS011;7853;52.186;5.948;2023-04-06T04:23:35;5.62;;;3.75;;
15502;SDS011;7853;52.186;5.948;2023-04-06T04:24:35;6.32;;;3.91;;
15502;SDS011;7853;52.186;5.948;2023-04-06T04:25:35;6.57;;;3.95;;
15502;SDS011;7853;52.186;5.948;2023-04-06T04:26:34;6.39;;;3.93;;
15502;SDS011;7853;52.186;5.948;2023-04-06T04:27:34;6.96;;;4.12;;
15502;SDS011;7853;52.186;5.948;2023-04-06T04:28:35;6.94;;;4.27;;
15502;SDS011;7853;52.186;5.948;2023-04-06T04:29:35;6.61;;;4.20;;
15502;SDS011;7853;52.186;5.948;2023-04-06T04:30:34;6.21;;;3.89;;
15502;SDS011;7853;52.186;5.948;2023-04-06T04:31:35;6.06;;;4.14;;
15502;SDS011;7853;52.186;5.948;2023-04-06T04:32:35;7.15;;;3.99;;
15502;SDS011;7853;52.186;5.948;2023-04-06T04:33:35;6.54;;;4.37;;
15502;SDS011;7853;52.186;5.948;2023-04-06T04:34:35;6.76;;;4.16;;
15502;SDS011;7853;52.186;5.948;2023-04-06T04:35:35;6.47;;;4.04;;
15502;SDS011;7853;52.186;5.948;2023-04-06T04:36:34;7.82;;;4.72;;
15502;SDS011;7853;52.186;5.948;2023-04-06T04:37:35;8.62;;;5.04;;
15502;SDS011;7853;52.186;5.948;2023-04-06T04:38:35;7.45;;;4.46;;
15502;SDS011;7853;52.186;5.948;2023-04-06T04:39:35;7.13;;;4.54;;
15502;SDS011;7853;52.186;5.948;2023-04-06T04:40:35;7.39;;;4.27;;
15502;SDS011;7853;52.186;5.948;2023-04-06T04:41:35;7.31;;;4.67;;
15502;SDS011;7853;52.186;5.948;2023-04-06T04:42:35;8.05;;;4.91;;
15502;SDS011;7853;52.186;5.948;2023-04-06T04:43:35;8.14;;;5.10;;
15502;SDS011;7853;52.186;5.948;2023-04-06T04:44:35;8.17;;;4.90;;
15502;SDS011;7853;52.186;5.948;2023-04-06T04:45:35;8.24;;;4.71;;
15502;SDS011;7853;52.186;5.948;2023-04-06T04:46:34;7.82;;;4.74;;
15502;SDS011;7853;52.186;5.948;2023-04-06T04:47:35;8.02;;;4.53;;
15502;SDS011;7853;52.186;5.948;2023-04-06T04:48:35;7.43;;;4.73;;
15502;SDS011;7853;52.186;5.948;2023-04-06T04:49:35;8.12;;;5.00;;
15502;SDS011;7853;52.186;5.948;2023-04-06T04:50:35;7.36;;;4.64;;
15502;SDS011;7853;52.186;5.948;2023-04-06T04:51:34;7.79;;;4.62;;
15502;SDS011;7853;52.186;5.948;2023-04-06T04:52:35;6.71;;;4.49;;
15502;SDS011;7853;52.186;5.948;2023-04-06T04:53:35;7.09;;;4.52;;
15502;SDS011;7853;52.186;5.948;2023-04-06T04:54:35;7.24;;;4.59;;
15502;SDS011;7853;52.186;5.948;2023-04-06T04:55:35;7.25;;;4.59;;
15502;SDS011;7853;52.186;5.948;2023-04-06T04:56:35;7.51;;;4.43;;
15502;SDS011;7853;52.186;5.948;2023-04-06T04:57:35;7.73;;;4.77;;
15502;SDS011;7853;52.186;5.948;2023-04-06T04:58:34;7.22;;;4.67;;
15502;SDS011;7853;52.186;5.948;2023-04-06T04:59:34;7.71;;;4.67;;
15502;SDS011;7853;52.186;5.948;2023-04-06T05:00:35;7.10;;;4.72;;
15502;SDS011;7853;52.186;5.948;2023-04-06T05:01:35;7.36;;;4.91;;
15502;SDS011;7853;52.186;5.948;2023-04-06T05:02:35;7.36;;;4.64;;
15502;SDS011;7853;52.186;5.948;2023-04-06T05:03:35;7.35;;;4.75;;
15502;SDS011;7853;52.186;5.948;2023-04-06T05:04:35;7.13;;;4.82;;
15502;SDS011;7853;52.186;5.948;2023-04-06T05:05:34;7.68;;;4.60;;
15502;SDS011;7853;52.186;5.948;2023-04-06T05:06:35;9.04;;;5.22;;
15502;SDS011;7853;52.186;5.948;2023-04-06T05:07:35;7.37;;;5.06;;
15502;SDS011;7853;52.186;5.948;2023-04-06T05:08:34;7.29;;;4.80;;
15502;SDS011;7853;52.186;5.948;2023-04-06T05:09:35;7.47;;;4.69;;
15502;SDS011;7853;52.186;5.948;2023-04-06T05:10:35;7.24;;;4.72;;
15502;SDS011;7853;52.186;5.948;2023-04-06T05:11:34;8.37;;;4.75;;
15502;SDS011;7853;52.186;5.948;2023-04-06T05:12:35;7.76;;;4.76;;
15502;SDS011;7853;52.186;5.948;2023-04-06T05:13:34;8.91;;;5.14;;
15502;SDS011;7853;52.186;5.948;2023-04-06T05:14:34;7.82;;;4.92;;
15502;SDS011;7853;52.186;5.948;2023-04-06T05:15:35;7.50;;;4.71;;
15502;SDS011;7853;52.186;5.948;2023-04-06T05:16:35;8.04;;;4.81;;
15502;SDS011;7853;52.186;5.948;2023-04-06T05:17:35;8.57;;;4.97;;
15502;SDS011;7853;52.186;5.948;2023-04-06T05:18:35;9.16;;;4.90;;
15502;SDS011;7853;52.186;5.948;2023-04-06T05:19:34;7.21;;;4.65;;
15502;SDS011;7853;52.186;5.948;2023-04-06T05:20:35;8.97;;;5.25;;
15502;SDS011;7853;52.186;5.948;2023-04-06T05:21:35;7.35;;;5.07;;
15502;SDS011;7853;52.186;5.948;2023-04-06T05:22:34;7.30;;;5.06;;
15502;SDS011;7853;52.186;5.948;2023-04-06T05:23:34;9.10;;;4.85;;
15502;SDS011;7853;52.186;5.948;2023-04-06T05:24:35;7.84;;;5.18;;
15502;SDS011;7853;52.186;5.948;2023-04-06T05:25:35;8.90;;;5.33;;
15502;SDS011;7853;52.186;5.948;2023-04-06T05:26:35;8.06;;;5.00;;
15502;SDS011;7853;52.186;5.948;2023-04-06T05:27:34;9.29;;;5.17;;
15502;SDS011;7853;52.186;5.948;2023-04-06T05:28:35;8.92;;;5.70;;
15502;SDS011;7853;52.186;5.948;2023-04-06T05:29:35;9.20;;;6.24;;
15502;SDS011;7853;52.186;5.948;2023-04-06T05:30:35;9.58;;;6.35;;
15502;SDS011;7853;52.186;5.948;2023-04-06T05:31:35;9.50;;;5.96;;
15502;SDS011;7853;52.186;5.948;2023-04-06T05:32:35;10.53;;;5.97;;
15502;SDS011;7853;52.186;5.948;2023-04-06T05:33:35;9.88;;;5.87;;
15502;SDS011;7853;52.186;5.948;2023-04-06T05:34:35;10.97;;;5.92;;
15502;SDS011;7853;52.186;5.948;2023-04-06T05:35:35;9.89;;;5.55;;
15502;SDS011;7853;52.186;5.948;2023-04-06T05:36:35;9.57;;;5.42;;
15502;SDS011;7853;52.186;5.948;2023-04-06T05:37:35;9.72;;;5.57;;
15502;SDS011;7853;52.186;5.948;2023-04-06T05:38:44;9.02;;;5.67;;
15502;SDS011;7853;52.186;5.948;2023-04-06T05:39:30;9.84;;;5.77;;
15502;SDS011;7853;52.186;5.948;2023-04-06T05:40:32;9.67;;;5.80;;
15502;SDS011;7853;52.186;5.948;2023-04-06T05:41:33;8.29;;;5.68;;
15502;SDS011;7853;52.186;5.948;2023-04-06T05:42:35;9.97;;;5.75;;
15502;SDS011;7853;52.186;5.948;2023-04-06T05:43:34;9.72;;;5.79;;
15502;SDS011;7853;52.186;5.948;2023-04-06T05:44:34;9.45;;;5.50;;
15502;SDS011;7853;52.186;5.948;2023-04-06T05:45:34;8.77;;;5.63;;
15502;SDS011;7853;52.186;5.948;2023-04-06T05:46:35;9.90;;;5.69;;
15502;SDS011;7853;52.186;5.948;2023-04-06T05:47:34;9.15;;;6.01;;
15502;SDS011;7853;52.186;5.948;2023-04-06T05:48:34;8.03;;;5.70;;
15502;SDS011;7853;52.186;5.948;2023-04-06T05:49:35;8.66;;;5.81;;
15502;SDS011;7853;52.186;5.948;2023-04-06T05:50:35;10.45;;;6.33;;
15502;SDS011;7853;52.186;5.948;2023-04-06T05:51:34;10.16;;;5.93;;
15502;SDS011;7853;52.186;5.948;2023-04-06T05:52:35;10.20;;;6.00;;
15502;SDS011;7853;52.186;5.948;2023-04-06T05:53:35;9.71;;;6.16;;
15502;SDS011;7853;52.186;5.948;2023-04-06T05:54:35;9.54;;;5.82;;
15502;SDS011;7853;52.186;5.948;2023-04-06T05:55:35;11.99;;;6.14;;
15502;SDS011;7853;52.186;5.948;2023-04-06T05:56:35;9.81;;;6.24;;
15502;SDS011;7853;52.186;5.948;2023-04-06T05:57:35;9.66;;;6.09;;
15502;SDS011;7853;52.186;5.948;2023-04-06T05:58:35;9.93;;;6.31;;
15502;SDS011;7853;52.186;5.948;2023-04-06T05:59:35;9.78;;;6.43;;
15502;SDS011;7853;52.186;5.948;2023-04-06T06:00:35;10.51;;;6.84;;
15502;SDS011;7853;52.186;5.948;2023-04-06T06:01:35;10.78;;;6.93;;
15502;SDS011;7853;52.186;5.948;2023-04-06T06:02:35;9.32;;;6.32;;
15502;SDS011;7853;52.186;5.948;2023-04-06T06:03:35;11.55;;;6.25;;
15502;SDS011;7853;52.186;5.948;2023-04-06T06:04:35;10.47;;;6.49;;
15502;SDS011;7853;52.186;5.948;2023-04-06T06:05:35;10.62;;;6.56;;
15502;SDS011;7853;52.186;5.948;2023-04-06T06:06:35;11.72;;;6.32;;
15502;SDS011;7853;52.186;5.948;2023-04-06T06:07:35;9.90;;;6.41;;